Time;durP1;ratioP1;P1;durP2;ratioP2;P2;SDS_P1;SDS_P2;PMS_P1;PMS_P2;Temp;Humidity;BMP_temperature;BMP_pressure;BME280_temperature;BME280_humidity;BME280_pressure;Samples;Min_cycle;Max_cycle;Signal;HPM_P1;HPM_P2
2022/04/06 00:01:25;;;;;;;11.43;3.25;;;;;;;10.83;89.83;99602.50;8356270;28;20083;-65
2022/04/06 00:05:26;;;;;;;9.55;3.10;;;;;;;10.81;90.00;99604.50;8353387;28;20041;-65
2022/04/06 00:09:26;;;;;;;11.20;3.28;;;;;;;10.83;89.55;99599.78;8357581;28;20123;-65
2022/04/06 00:13:26;;;;;;;9.13;3.13;;;;;;;10.78;89.72;99589.47;8357343;28;20041;-65
2022/04/06 00:17:27;;;;;;;10.68;2.90;;;;;;;10.75;89.77;99589.78;8356585;28;20037;-65
2022/04/06 00:21:27;;;;;;;13.57;3.03;;;;;;;10.78;89.72;99594.88;8355574;28;20064;-65
2022/04/06 00:25:28;;;;;;;14.07;3.60;;;;;;;10.71;90.22;99593.84;8357021;28;20561;-65
2022/04/06 00:29:29;;;;;;;8.30;3.10;;;;;;;10.62;90.51;99589.41;8357232;28;20476;-65
2022/04/06 00:33:29;;;;;;;9.52;3.38;;;;;;;10.63;90.55;99590.25;8356091;28;20424;-65
2022/04/06 00:37:29;;;;;;;10.95;2.80;;;;;;;10.63;90.15;99591.09;8358816;28;20040;-65
2022/04/06 00:41:30;;;;;;;12.80;2.75;;;;;;;10.57;90.44;99580.94;8362056;28;20033;-65
2022/04/06 00:45:31;;;;;;;12.63;2.78;;;;;;;10.55;91.08;99588.34;8359743;28;20048;-65
2022/04/06 00:49:32;;;;;;;10.73;3.20;;;;;;;10.54;90.70;99575.00;8361253;28;20040;-65
2022/04/06 00:53:32;;;;;;;9.38;2.53;;;;;;;10.51;91.23;99581.59;8361599;28;20037;-65
2022/04/06 00:57:33;;;;;;;9.38;2.53;;;;;;;10.57;90.17;99571.97;8363046;28;20493;-65
2022/04/06 01:01:33;;;;;;;8.25;2.40;;;;;;;10.61;90.37;99563.38;8361263;28;20546;-65
2022/04/06 01:05:35;;;;;;;11.25;3.00;;;;;;;10.59;90.33;99557.31;8358035;28;20552;-65
2022/04/06 01:09:36;;;;;;;11.80;2.58;;;;;;;10.59;90.46;99557.31;8360380;28;20049;-65
2022/04/06 01:13:37;;;;;;;8.85;2.70;;;;;;;10.55;90.78;99549.69;8355791;28;20443;-65
2022/04/06 01:17:37;;;;;;;8.35;2.85;;;;;;;10.52;90.94;99552.72;8344623;28;20079;-65
2022/04/06 01:21:38;;;;;;;7.20;2.45;;;;;;;10.52;91.15;99550.84;8361023;28;20509;-65
2022/04/06 01:25:40;;;;;;;5.75;2.67;;;;;;;10.56;90.81;99545.97;8359970;28;20110;-65
2022/04/06 01:29:40;;;;;;;6.57;3.00;;;;;;;10.56;91.08;99556.78;8359933;28;20040;-65
2022/04/06 01:33:41;;;;;;;6.90;2.72;;;;;;;10.51;91.51;99549.16;8361526;28;20481;-65
2022/04/06 01:37:42;;;;;;;7.60;2.70;;;;;;;10.52;90.82;99545.44;8359623;28;20094;-65
2022/04/06 01:41:42;;;;;;;13.02;3.10;;;;;;;10.55;90.73;99538.88;8360192;28;20029;-65
2022/04/06 01:45:43;;;;;;;9.32;2.67;;;;;;;10.55;90.61;99542.41;8357943;28;20041;-65
2022/04/06 01:54:05;;;;;;;7.93;2.70;;;;;;;10.54;90.74;99542.59;8360633;28;20044;-65
2022/04/06 01:58:06;;;;;;;8.25;2.40;;;;;;;10.50;91.44;99533.97;8360042;28;20482;-65
2022/04/06 02:02:06;;;;;;;8.00;3.80;;;;;;;10.48;91.77;99533.28;8359656;28;20064;-65
2022/04/06 02:06:07;;;;;;;13.82;3.28;;;;;;;10.50;91.88;99535.81;8359859;28;20033;-65
2022/04/06 02:10:08;;;;;;;10.32;2.95;;;;;;;10.54;91.08;99537.19;8360437;28;20033;-65
2022/04/06 02:14:08;;;;;;;8.77;3.15;;;;;;;10.51;91.49;99530.25;8360081;28;20218;-65
2022/04/06 02:18:09;;;;;;;10.88;3.17;;;;;;;10.46;92.39;99529.88;8360475;28;20098;-65
2022/04/06 02:22:10;;;;;;;11.57;2.92;;;;;;;10.45;92.49;99533.59;8360291;28;20116;-65
2022/04/06 02:26:10;;;;;;;10.88;3.10;;;;;;;10.44;92.36;99518.41;8358517;28;20044;-65
2022/04/06 02:30:11;;;;;;;10.88;3.45;;;;;;;10.46;92.47;99523.66;8357917;28;20056;-65
2022/04/06 02:34:12;;;;;;;12.57;3.53;;;;;;;10.43;93.02;99524.81;8359729;28;20044;-65
2022/04/06 02:38:12;;;;;;;10.27;3.50;;;;;;;10.44;92.76;99523.81;8360083;28;20090;-65
2022/04/06 02:42:12;;;;;;;11.30;3.20;;;;;;;10.45;93.12;99525.50;8359824;28;20037;-65
2022/04/06 02:46:13;;;;;;;9.70;3.17;;;;;;;10.42;93.53;99517.72;8357647;28;20051;-65
2022/04/06 02:50:14;;;;;;;10.63;3.40;;;;;;;10.39;93.64;99511.78;8358733;28;20064;-65
2022/04/06 02:54:15;;;;;;;11.30;3.05;;;;;;;10.41;92.79;99516.03;8359056;28;20048;-65
2022/04/06 02:58:16;;;;;;;14.95;2.80;;;;;;;10.38;93.14;99507.41;8359069;28;20037;-65
2022/04/06 03:02:16;;;;;;;8.57;2.95;;;;;;;10.47;91.37;99515.38;8348247;28;20029;-65
2022/04/06 03:06:17;;;;;;;10.05;3.25;;;;;;;10.42;91.75;99504.22;8358146;28;20124;-65
2022/04/06 03:10:17;;;;;;;9.55;2.53;;;;;;;10.39;92.18;99504.53;8371774;28;20040;-65
2022/04/06 03:14:18;;;;;;;12.98;3.15;;;;;;;10.41;91.85;99496.28;8354612;28;20052;-65
2022/04/06 03:18:18;;;;;;;9.68;2.80;;;;;;;10.40;91.02;99500.81;8356589;28;20437;-65
2022/04/06 03:22:18;;;;;;;8.80;2.65;;;;;;;10.40;90.92;99498.13;8358221;28;20040;-65
2022/04/06 03:26:19;;;;;;;8.85;2.88;;;;;;;10.46;90.61;99497.47;8370596;28;20060;-65
2022/04/06 03:30:19;;;;;;;6.20;2.55;;;;;;;10.37;91.53;99493.03;8355875;28;20109;-65
2022/04/06 03:34:20;;;;;;;7.88;3.38;;;;;;;10.34;91.35;99493.38;8357844;28;20456;-65
2022/04/06 03:38:20;;;;;;;10.57;2.78;;;;;;;10.36;91.59;99501.31;8358111;28;20040;-65
2022/04/06 03:42:20;;;;;;;6.93;2.50;;;;;;;10.34;91.46;99487.97;8358526;28;20084;-65
2022/04/06 03:46:21;;;;;;;12.10;2.75;;;;;;;10.33;91.62;99480.88;8357676;28;20045;-65
2022/04/06 03:50:22;;;;;;;10.23;2.90;;;;;;;10.36;91.08;99491.38;8356274;28;20072;-65
2022/04/06 03:54:22;;;;;;;10.85;3.17;;;;;;;10.36;90.72;99483.25;8357911;28;20041;-65
2022/04/06 03:58:22;;;;;;;10.02;2.83;;;;;;;10.28;91.79;99477.00;8356569;28;20401;-65
2022/04/06 04:02:24;;;;;;;11.70;2.95;;;;;;;10.26;91.28;99474.47;8357252;28;20068;-65
2022/04/06 04:06:25;;;;;;;13.85;3.30;;;;;;;10.22;91.33;99475.81;8357250;28;20033;-65
2022/04/06 04:10:25;;;;;;;8.60;3.30;;;;;;;10.28;90.71;99460.78;8356037;28;20536;-65
2022/04/06 04:14:25;;;;;;;5.50;2.83;;;;;;;10.25;91.22;99467.38;8363051;28;20497;-65
2022/04/06 04:18:26;;;;;;;8.30;2.92;;;;;;;10.18;91.95;99471.72;8361085;28;20404;-65
2022/04/06 04:22:26;;;;;;;10.73;3.70;;;;;;;10.17;92.25;99472.75;8364312;28;20493;-65
2022/04/06 04:26:39;;;;;;;17.52;3.58;;;;;;;10.12;92.67;99461.56;8361576;28;20045;-65
2022/04/06 04:30:39;;;;;;;14.32;3.63;;;;;;;10.11;92.77;99459.88;8361197;28;20064;-65
2022/04/06 04:34:39;;;;;;;9.90;3.35;;;;;;;10.13;92.71;99457.88;8362499;28;20048;-65
2022/04/06 04:38:40;;;;;;;10.52;3.42;;;;;;;10.09;92.94;99461.91;8363685;28;20580;-65
2022/04/06 04:42:40;;;;;;;8.05;2.88;;;;;;;10.09;92.87;99464.59;8358721;28;20127;-65
2022/04/06 04:46:41;;;;;;;14.10;3.03;;;;;;;10.05;92.92;99465.91;8382832;28;20077;-65
2022/04/06 04:50:41;;;;;;;10.15;2.95;;;;;;;10.07;92.82;99474.72;8340558;28;20041;-65
2022/04/06 04:54:41;;;;;;;15.15;3.58;;;;;;;10.09;92.26;99471.88;8361068;28;20037;-65
2022/04/06 04:58:42;;;;;;;9.10;2.53;;;;;;;10.01;92.24;99467.25;8363241;28;20033;-65
2022/04/06 05:02:43;;;;;;;10.68;2.90;;;;;;;10.03;91.51;99463.38;8359673;28;20052;-65
2022/04/06 05:06:43;;;;;;;9.98;3.00;;;;;;;10.02;91.75;99460.84;8353302;28;20437;-65
2022/04/06 05:10:44;;;;;;;8.50;2.25;;;;;;;10.03;90.70;99457.13;8359039;28;20450;-65
2022/04/06 05:14:44;;;;;;;9.05;2.90;;;;;;;10.03;89.58;99457.13;8354899;28;20071;-65
2022/04/06 05:18:45;;;;;;;12.13;2.00;;;;;;;10.06;88.51;99451.38;8356070;28;20037;-65
2022/04/06 05:22:45;;;;;;;5.47;2.15;;;;;;;10.04;88.71;99458.81;8353602;28;20037;-65
2022/04/06 05:26:46;;;;;;;5.60;1.85;;;;;;;10.04;88.43;99453.44;8354416;28;20166;-65
2022/04/06 05:30:46;;;;;;;7.05;1.83;;;;;;;10.15;86.36;99466.66;8354254;28;20452;-65
2022/04/06 05:34:46;;;;;;;8.00;1.75;;;;;;;10.17;86.79;99464.63;8350499;28;20041;-60
2022/04/06 05:38:47;;;;;;;13.52;3.13;;;;;;;10.14;87.21;99448.75;8354939;28;20052;-65
2022/04/06 05:42:47;;;;;;;6.60;2.00;;;;;;;10.14;87.30;99454.16;8354651;28;20037;-64
2022/04/06 05:46:48;;;;;;;11.02;2.55;;;;;;;10.17;86.74;99451.13;8337956;28;20115;-64
2022/04/06 05:50:48;;;;;;;5.90;1.80;;;;;;;10.24;85.62;99449.47;8346712;28;20072;-64
2022/04/06 05:54:51;;;;;;;7.68;1.55;;;;;;;10.25;85.58;99443.06;8335077;28;20120;-64
2022/04/06 05:58:51;;;;;;;4.97;1.88;;;;;;;10.22;86.05;99429.88;8341699;28;20041;-64
2022/04/06 06:02:53;;;;;;;8.15;1.70;;;;;;;10.27;86.02;99442.91;8355024;28;20040;-64
2022/04/06 06:06:53;;;;;;;8.65;2.20;;;;;;;10.31;84.46;99428.88;8357022;28;20036;-64
2022/04/06 06:10:53;;;;;;;5.87;1.80;;;;;;;10.33;84.83;99434.97;8355912;28;20561;-64
2022/04/06 06:14:54;;;;;;;4.32;1.60;;;;;;;10.33;85.63;99440.38;8355336;28;20275;-64
2022/04/06 06:18:56;;;;;;;9.93;1.90;;;;;;;10.35;85.02;99443.75;8357036;28;20045;-64
2022/04/06 06:22:57;;;;;;;9.65;2.17;;;;;;;10.35;84.76;99446.47;8355491;28;20045;-64
2022/04/06 06:26:57;;;;;;;6.90;1.40;;;;;;;10.37;83.85;99440.91;8356314;28;20598;-64
2022/04/06 06:30:57;;;;;;;6.25;1.77;;;;;;;10.40;84.21;99435.16;8356096;28;20045;-64
2022/04/06 06:34:58;;;;;;;15.40;1.85;;;;;;;10.46;82.99;99437.19;8355368;28;20032;-64
2022/04/06 06:38:58;;;;;;;11.30;1.38;;;;;;;10.48;83.01;99438.72;8355117;28;20060;-64
2022/04/06 06:42:58;;;;;;;5.72;1.60;;;;;;;10.46;83.13;99450.72;8354517;28;20515;-64
2022/04/06 06:46:59;;;;;;;1.75;1.00;;;;;;;10.47;82.58;99438.88;8355547;28;20037;-64
2022/04/06 06:50:59;;;;;;;5.85;1.15;;;;;;;10.45;82.49;99440.88;8354043;28;20588;-64
2022/04/06 06:55:01;;;;;;;8.93;1.55;;;;;;;10.48;82.17;99421.66;8354554;28;20124;-64
2022/04/06 06:59:02;;;;;;;2.67;1.10;;;;;;;10.59;82.57;99438.41;8354120;28;20407;-64
2022/04/06 07:03:02;;;;;;;4.68;1.30;;;;;;;10.66;81.59;99428.59;8355272;28;20079;-64
2022/04/06 07:07:03;;;;;;;4.10;1.20;;;;;;;10.64;81.36;99430.63;8355240;28;20025;-64
2022/04/06 07:11:04;;;;;;;3.58;1.25;;;;;;;10.68;81.69;99426.59;8353968;28;20079;-64
2022/04/06 07:15:05;;;;;;;4.57;1.25;;;;;;;10.72;81.77;99433.34;8354502;28;20032;-64
2022/04/06 07:19:05;;;;;;;5.03;0.93;;;;;;;10.69;82.56;99428.28;8353989;28;20102;-64
2022/04/06 07:23:07;;;;;;;7.35;1.27;;;;;;;10.70;81.12;99427.25;8354602;28;20029;-64
2022/04/06 07:27:07;;;;;;;3.97;1.20;;;;;;;10.68;82.42;99434.69;8355110;28;20120;-64
2022/04/06 07:31:08;;;;;;;6.13;1.33;;;;;;;10.69;82.00;99428.28;8354578;28;20067;-64
2022/04/06 07:35:08;;;;;;;2.22;1.00;;;;;;;10.67;81.06;99434.88;8354759;28;20476;-64
2022/04/06 07:39:09;;;;;;;2.70;0.95;;;;;;;10.67;82.41;99424.88;8355170;28;20052;-64
2022/04/06 07:43:11;;;;;;;5.90;1.63;;;;;;;10.71;81.14;99420.84;8353170;28;20041;-64
2022/04/06 07:47:11;;;;;;;5.93;1.50;;;;;;;10.79;80.88;99417.28;8358353;28;20048;-64
2022/04/06 07:51:12;;;;;;;5.10;1.17;;;;;;;10.79;80.26;99414.56;8359697;28;20041;-64
2022/04/06 07:55:13;;;;;;;5.28;1.42;;;;;;;10.79;80.88;99418.13;8360971;28;20278;-64
2022/04/06 07:59:14;;;;;;;4.93;1.63;;;;;;;10.81;80.55;99424.22;8361334;28;20409;-64
2022/04/06 08:03:14;;;;;;;5.57;1.42;;;;;;;10.75;81.83;99430.31;8360791;28;20064;-64
2022/04/06 08:07:15;;;;;;;9.43;1.30;;;;;;;10.75;82.16;99422.19;8361026;28;20144;-64
2022/04/06 08:11:15;;;;;;;5.40;1.10;;;;;;;10.75;80.86;99414.09;8361059;28;20056;-64
2022/04/06 08:15:16;;;;;;;6.95;1.63;;;;;;;10.85;81.50;99424.72;8360081;28;20275;-64
2022/04/06 08:19:17;;;;;;;7.93;1.33;;;;;;;10.95;81.10;99423.53;8360410;28;20091;-64
2022/04/06 08:23:19;;;;;;;4.97;1.30;;;;;;;10.94;80.25;99421.84;8360538;28;20041;-64
2022/04/06 08:27:19;;;;;;;5.50;1.60;;;;;;;10.98;80.54;99417.78;8354755;28;20045;-64
2022/04/06 08:31:20;;;;;;;2.37;1.10;;;;;;;11.01;78.80;99416.63;8359953;28;20138;-64
2022/04/06 08:35:20;;;;;;;4.10;1.00;;;;;;;10.97;78.44;99413.41;8359985;28;20287;-65
2022/04/06 08:39:21;;;;;;;2.00;0.93;;;;;;;10.97;77.61;99421.50;8355986;28;20045;-64
2022/04/06 08:43:22;;;;;;;7.50;1.58;;;;;;;10.96;77.10;99419.81;8359928;28;20033;-64
2022/04/06 08:47:23;;;;;;;3.90;1.30;;;;;;;10.93;78.64;99422.03;8359879;28;20062;-64
2022/04/06 08:51:27;;;;;;;5.70;1.63;;;;;;;10.93;77.59;99413.91;8346998;28;20033;-64
2022/04/06 08:55:28;;;;;;;6.97;1.30;;;;;;;10.97;76.45;99418.81;8358880;28;20567;-64
2022/04/06 08:59:29;;;;;;;5.47;1.35;;;;;;;11.00;76.93;99410.34;8358718;28;20051;-64
2022/04/06 09:03:29;;;;;;;3.75;1.63;;;;;;;11.08;76.89;99413.06;8390988;28;20128;-64
2022/04/06 09:07:31;;;;;;;6.80;1.20;;;;;;;11.14;75.44;99412.38;8359230;28;20041;-64
2022/04/06 09:11:41;;;;;;;3.05;0.82;;;;;;;11.23;75.42;99402.38;8358425;28;20505;-64
2022/04/06 09:15:43;;;;;;;5.95;1.33;;;;;;;11.38;75.51;99398.78;8358799;28;20037;-64
2022/04/06 09:19:46;;;;;;;5.80;0.90;;;;;;;11.58;74.45;99389.25;8358320;28;20037;-64
2022/04/06 09:23:48;;;;;;;2.78;1.30;;;;;;;12.21;72.44;99380.19;8357833;28;20147;-64
2022/04/06 09:27:48;;;;;;;6.18;1.08;;;;;;;12.60;71.75;99379.03;8356684;28;20060;-64
2022/04/06 09:31:49;;;;;;;6.43;1.00;;;;;;;12.64;70.53;99376.84;8340150;28;20049;-64
2022/04/06 09:35:50;;;;;;;5.18;0.88;;;;;;;12.77;70.54;99360.78;8357439;28;20283;-65
2022/04/06 09:39:51;;;;;;;6.38;1.10;;;;;;;13.09;70.59;99371.38;8356263;28;20052;-65
2022/04/06 09:43:53;;;;;;;4.00;0.80;;;;;;;13.12;69.18;99365.59;8355043;28;20048;-65
2022/04/06 09:47:54;;;;;;;7.22;1.75;;;;;;;13.48;68.01;99353.81;8355876;28;20396;-65
2022/04/06 09:51:55;;;;;;;3.10;0.80;;;;;;;13.58;67.44;99350.81;8356527;28;20037;-65
2022/04/06 09:55:56;;;;;;;5.10;0.82;;;;;;;13.97;67.82;99351.34;8354768;28;20041;-65
2022/04/06 09:59:56;;;;;;;8.60;0.75;;;;;;;14.92;63.62;99352.78;8356646;28;20044;-65
2022/04/06 10:04:01;;;;;;;5.00;0.95;;;;;;;15.54;61.92;99353.66;8356158;28;20033;-65
2022/04/06 10:08:05;;;;;;;4.38;0.85;;;;;;;15.59;62.91;99341.09;8355042;28;20044;-65
2022/04/06 10:12:06;;;;;;;3.15;0.45;;;;;;;17.09;60.18;99346.16;8353583;28;20045;-65
2022/04/06 10:16:10;;;;;;;1.50;0.38;;;;;;;17.91;58.04;99339.09;8355497;28;20052;-65
2022/04/06 10:20:21;;;;;;;6.78;0.82;;;;;;;18.28;57.53;99338.28;8355661;28;20039;-65
2022/04/06 10:24:42;;;;;;;6.07;0.50;;;;;;;16.55;61.12;99331.84;8350515;28;20041;-65
2022/04/06 10:28:44;;;;;;;4.35;0.88;;;;;;;15.57;61.31;99332.31;8354886;28;20150;-65
2022/04/06 10:32:46;;;;;;;7.45;0.93;;;;;;;14.80;64.32;99322.53;8353988;28;20052;-64
2022/04/06 10:37:10;;;;;;;1.98;0.50;;;;;;;14.25;67.70;99338.75;8356066;28;20033;-64
2022/04/06 10:41:10;;;;;;;4.23;0.63;;;;;;;13.81;68.74;99327.94;8355908;28;20033;-64
2022/04/06 10:54:34;;;;;;;4.15;0.68;;;;;;;13.52;71.34;99329.84;8412984;27;20439;-63
2022/04/06 11:03:16;;;;;;;5.43;0.90;;;;;;;13.47;69.53;99316.84;8354086;27;20988;-63
2022/04/06 11:10:06;;;;;;;3.00;0.40;;;;;;;13.83;69.16;99312.31;8349518;28;20398;-63
2022/04/06 11:11:45;;;;;;;2.70;0.50;;;;;;;14.46;68.46;99314.28;8347455;28;20120;-63
2022/04/06 11:15:51;;;;;;;2.42;0.63;;;;;;;14.52;68.13;99301.78;8348147;28;20220;-64
2022/04/06 11:19:52;;;;;;;2.33;0.50;;;;;;;14.57;68.66;99299.28;8372222;28;20607;-64
2022/04/06 11:23:52;;;;;;;2.88;0.50;;;;;;;14.57;67.31;99302.84;8350372;28;20418;-64
2022/04/06 11:27:55;;;;;;;2.08;0.50;;;;;;;14.52;69.52;99305.31;8350397;28;20436;-64
2022/04/06 11:32:01;;;;;;;1.63;0.60;;;;;;;14.37;66.58;99293.69;8348453;28;20375;-64
2022/04/06 11:36:18;;;;;;;2.97;0.55;;;;;;;14.79;67.41;99293.63;8348363;28;20109;-64
2022/04/06 11:40:22;;;;;;;2.53;0.55;;;;;;;14.75;67.53;99281.47;8349873;28;20124;-64
2022/04/06 11:44:24;;;;;;;2.95;0.52;;;;;;;14.40;68.28;99279.72;8337760;28;20049;-64
2022/04/06 11:48:40;;;;;;;1.25;0.65;;;;;;;14.26;68.49;99283.31;8345695;28;20095;-64
2022/04/06 11:52:42;;;;;;;1.63;0.40;;;;;;;14.09;68.28;99287.28;8353172;28;20048;-64
2022/04/06 11:56:42;;;;;;;1.38;0.40;;;;;;;13.67;69.44;99273.66;8379520;28;20036;-64
2022/04/06 12:00:43;;;;;;;3.28;0.50;;;;;;;13.41;71.22;99284.16;8367638;28;20057;-64
2022/04/06 12:04:48;;;;;;;2.20;0.70;;;;;;;13.35;71.30;99279.47;8379490;28;20438;-64
2022/04/06 12:08:49;;;;;;;2.30;0.75;;;;;;;13.45;72.10;99269.19;8358923;28;20036;-64
2022/04/06 12:12:50;;;;;;;3.40;0.80;;;;;;;13.25;71.28;99268.06;8315781;28;20042;-64
2022/04/06 12:16:50;;;;;;;1.85;0.50;;;;;;;13.28;71.42;99262.28;8285399;28;20521;-64
2022/04/06 12:20:51;;;;;;;1.25;0.47;;;;;;;13.24;71.95;99255.56;8303987;28;20041;-64
2022/04/06 12:24:52;;;;;;;2.47;0.50;;;;;;;13.27;72.45;99257.88;8291952;28;20038;-64
2022/04/06 12:28:59;;;;;;;1.55;0.73;;;;;;;13.20;72.99;99251.50;8291452;28;20553;-64
2022/04/06 12:32:59;;;;;;;2.13;0.50;;;;;;;13.14;72.44;99246.81;8291676;28;20305;-64
2022/04/06 12:37:29;;;;;;;1.42;0.75;;;;;;;13.25;73.06;99243.66;8290499;28;20080;-64
2022/04/06 12:41:33;;;;;;;3.25;0.80;;;;;;;13.21;72.77;99228.78;8291205;28;20034;-64
2022/04/06 12:45:49;;;;;;;2.65;0.68;;;;;;;13.10;71.44;99237.38;8302813;28;20057;-64
2022/04/06 12:49:50;;;;;;;3.40;0.70;;;;;;;13.16;71.35;99237.50;8296207;28;20064;-64
2022/04/06 12:53:52;;;;;;;3.85;0.90;;;;;;;13.16;72.18;99231.22;8292827;28;20779;-64
2022/04/06 12:57:52;;;;;;;2.60;0.75;;;;;;;13.21;72.55;99217.94;8289379;28;20535;-64
2022/04/06 13:01:53;;;;;;;5.28;0.70;;;;;;;13.22;71.92;99219.59;8290908;28;20450;-64
2022/04/06 13:05:54;;;;;;;3.85;0.70;;;;;;;13.21;70.55;99217.94;8319690;28;20406;-64
2022/04/06 13:09:57;;;;;;;4.40;0.80;;;;;;;13.24;72.15;99201.28;8318984;28;20521;-64
2022/04/06 13:13:57;;;;;;;2.03;0.90;;;;;;;13.30;71.85;99214.09;8306915;28;20025;-64
2022/04/06 13:17:57;;;;;;;5.00;1.70;;;;;;;13.23;73.02;99205.00;8299662;28;20049;-65
2022/04/06 13:21:58;;;;;;;4.25;0.98;;;;;;;13.19;74.19;99193.69;8300921;28;20283;-64
2022/04/06 13:26:00;;;;;;;3.35;1.00;;;;;;;13.25;72.36;99192.09;8288004;28;20449;-64
2022/04/06 13:30:01;;;;;;;2.92;0.65;;;;;;;13.19;70.84;99187.41;8290574;28;20091;-64
2022/04/06 13:34:01;;;;;;;2.50;0.70;;;;;;;13.10;71.63;99188.53;8289211;28;20049;-65
2022/04/06 13:38:01;;;;;;;5.28;1.05;;;;;;;12.98;71.73;99173.75;8290290;28;20034;-65
2022/04/06 13:42:02;;;;;;;2.92;1.25;;;;;;;12.98;71.63;99162.91;8289555;28;20053;-64
2022/04/06 13:46:04;;;;;;;2.47;0.95;;;;;;;12.94;72.31;99172.44;8289117;28;20038;-64
2022/04/06 13:50:06;;;;;;;3.45;0.77;;;;;;;12.87;72.33;99171.53;8292651;28;20185;-64
2022/04/06 13:54:07;;;;;;;2.72;0.90;;;;;;;12.83;72.25;99153.94;8288916;28;20087;-64
2022/04/06 13:58:08;;;;;;;3.35;1.38;;;;;;;12.80;74.36;99149.72;8289078;28;20044;-64
2022/04/06 14:02:08;;;;;;;3.55;1.05;;;;;;;12.91;73.96;99137.56;8287413;28;20037;-64
2022/04/06 14:06:09;;;;;;;3.45;1.45;;;;;;;12.95;75.08;99130.72;8288945;28;20037;-64
2022/04/06 14:10:09;;;;;;;4.35;1.13;;;;;;;13.03;75.46;99122.53;8296039;28;20410;-64
2022/04/06 14:14:10;;;;;;;3.15;1.45;;;;;;;13.08;76.52;99114.63;8307349;28;20053;-64
2022/04/06 14:18:10;;;;;;;4.60;1.10;;;;;;;13.04;76.92;99100.63;8278486;28;20061;-64
2022/04/06 14:22:11;;;;;;;5.05;1.00;;;;;;;13.10;74.30;99101.72;8274495;28;20054;-64
2022/04/06 14:26:11;;;;;;;4.97;1.30;;;;;;;13.23;74.15;99089.16;8255997;28;20042;-64
2022/04/06 14:30:12;;;;;;;2.33;0.80;;;;;;;13.45;75.38;99095.44;8287000;28;20125;-64
2022/04/06 14:34:13;;;;;;;4.40;1.38;;;;;;;13.72;73.52;99086.50;8266446;28;20033;-64
2022/04/06 14:38:15;;;;;;;4.00;1.02;;;;;;;13.98;70.95;99075.88;8285113;28;20110;-64
2022/04/06 14:42:16;;;;;;;5.47;1.40;;;;;;;14.17;69.95;99075.16;8281005;28;20048;-64
2022/04/06 14:46:16;;;;;;;4.60;0.90;;;;;;;14.12;68.09;99064.03;8285060;28;20510;-64
2022/04/06 14:50:17;;;;;;;7.00;1.07;;;;;;;14.13;68.38;99063.00;8304987;28;20068;-64
2022/04/06 14:54:19;;;;;;;5.25;1.20;;;;;;;14.14;68.67;99056.53;8288208;28;20645;-64
2022/04/06 14:58:19;;;;;;;2.55;1.02;;;;;;;14.09;67.87;99052.75;8277589;28;20038;-64
2022/04/06 15:02:20;;;;;;;3.53;0.90;;;;;;;14.11;68.24;99053.34;8290089;28;20042;-64
2022/04/06 15:06:20;;;;;;;2.22;0.88;;;;;;;14.13;68.00;99041.28;8284285;28;20129;-64
2022/04/06 15:10:22;;;;;;;2.50;0.90;;;;;;;14.23;67.32;99030.91;8287752;28;20464;-64
2022/04/06 15:14:22;;;;;;;3.40;0.95;;;;;;;14.15;68.12;99022.88;8286411;28;20473;-64
2022/04/06 15:18:23;;;;;;;4.32;1.70;;;;;;;13.88;72.74;99015.59;8318815;28;20060;-64
2022/04/06 15:22:23;;;;;;;2.95;1.02;;;;;;;13.32;76.36;99006.56;8302584;28;21122;-64
2022/04/06 15:26:34;;;;;;;4.00;1.17;;;;;;;13.16;75.67;99004.13;8299190;28;20042;-64
2022/04/06 15:30:34;;;;;;;3.70;0.75;;;;;;;13.15;75.30;99007.03;8286072;28;20426;-64
2022/04/06 15:38:55;;;;;;;4.13;1.38;;;;;;;12.96;79.42;99008.47;8286548;28;20112;-64
2022/04/06 15:42:57;;;;;;;5.22;1.20;;;;;;;13.02;79.18;99013.16;8289195;28;20043;-64
2022/04/06 15:46:59;;;;;;;3.53;1.00;;;;;;;13.14;78.50;99006.19;8281504;28;20045;-64
2022/04/06 15:51:00;;;;;;;2.53;1.00;;;;;;;13.22;76.75;98997.06;8277508;28;20138;-64
2022/04/06 15:55:00;;;;;;;2.75;1.10;;;;;;;13.38;76.33;98985.94;8285832;28;20029;-64
2022/04/06 15:59:01;;;;;;;1.90;1.17;;;;;;;13.39;76.94;98987.66;8292051;28;20033;-64
2022/04/06 16:03:01;;;;;;;2.80;1.80;;;;;;;13.36;76.02;98977.16;8314294;28;20572;-64
2022/04/06 16:07:03;;;;;;;3.25;1.45;;;;;;;13.32;75.70;98970.44;8304084;28;20053;-64
2022/04/06 16:11:03;;;;;;;2.38;1.38;;;;;;;13.27;75.25;98972.91;8300985;28;20128;-64
2022/04/06 16:15:05;;;;;;;5.13;1.70;;;;;;;13.32;74.90;98973.16;8314032;28;20053;-64
2022/04/06 16:19:05;;;;;;;6.07;1.83;;;;;;;13.36;73.87;98966.31;8283347;28;20307;-64
2022/04/06 16:23:06;;;;;;;4.15;1.88;;;;;;;13.27;74.10;98972.91;8285562;28;20033;-64
2022/04/06 16:27:06;;;;;;;3.33;1.42;;;;;;;13.33;74.46;98956.66;8290550;28;20038;-64
2022/04/06 16:31:07;;;;;;;3.35;2.15;;;;;;;13.29;74.61;98954.53;8278269;28;20065;-64
2022/04/06 16:35:07;;;;;;;3.53;1.90;;;;;;;13.21;74.63;98943.84;8284493;28;20038;-64
2022/04/06 16:39:09;;;;;;;3.17;1.52;;;;;;;13.21;74.35;98944.66;8288857;28;20040;-64
2022/04/06 16:43:10;;;;;;;3.97;1.80;;;;;;;13.20;74.83;98934.00;8293030;28;20104;-64
2022/04/06 16:47:13;;;;;;;4.53;2.22;;;;;;;13.18;74.24;98926.06;8301078;28;20041;-64
2022/04/06 16:52:49;;;;;;;3.63;2.10;;;;;;;13.12;74.95;98923.31;8302206;28;20428;-64
2022/04/06 16:55:34;;;;;;;5.63;2.10;;;;;;;13.07;75.41;98917.63;8266359;28;20056;-64
2022/04/06 16:59:34;;;;;;;5.32;2.00;;;;;;;13.08;74.83;98908.44;8274553;28;20046;-64
2022/04/06 17:03:35;;;;;;;5.85;2.67;;;;;;;13.12;74.23;98907.03;8277763;28;20062;-64
2022/04/06 17:07:36;;;;;;;4.68;2.13;;;;;;;13.11;74.79;98903.47;8266066;28;20101;-64
2022/04/06 17:11:40;;;;;;;4.65;2.92;;;;;;;13.12;74.30;98901.59;8297758;28;20092;-64
2022/04/06 17:15:41;;;;;;;4.65;2.40;;;;;;;13.03;74.38;98889.22;8272139;28;20050;-64
2022/04/06 17:19:43;;;;;;;4.93;2.40;;;;;;;13.02;74.45;98896.50;8285389;28;20120;-64
2022/04/06 17:23:43;;;;;;;5.93;2.83;;;;;;;13.02;73.87;98903.81;8267806;28;20061;-64
2022/04/06 17:27:44;;;;;;;5.30;2.72;;;;;;;12.94;74.62;98879.50;8277541;28;20046;-64
2022/04/06 17:31:45;;;;;;;5.15;2.80;;;;;;;12.90;74.54;98867.38;8275986;28;20104;-64
2022/04/06 17:35:46;;;;;;;5.03;2.70;;;;;;;12.83;75.25;98866.47;8287987;28;20073;-64
2022/04/06 17:39:46;;;;;;;8.32;2.95;;;;;;;12.83;74.70;98882.72;8291958;28;20511;-64
2022/04/06 17:43:48;;;;;;;3.83;2.40;;;;;;;12.80;74.91;98883.13;8286011;28;20758;-64
2022/04/06 17:47:49;;;;;;;4.75;3.17;;;;;;;12.80;74.50;98889.38;8286842;28;20498;-64
2022/04/06 17:51:49;;;;;;;4.50;2.70;;;;;;;12.86;74.14;98876.91;8293132;28;20065;-64
2022/04/06 17:55:50;;;;;;;7.28;2.97;;;;;;;12.89;73.66;98871.94;8275352;28;20399;-64
2022/04/06 17:59:50;;;;;;;6.55;2.95;;;;;;;12.82;74.42;98872.94;8275001;28;20046;-64
2022/04/06 18:03:51;;;;;;;9.70;2.95;;;;;;;12.81;74.55;98855.81;8278329;28;20491;-64
2022/04/06 18:07:51;;;;;;;5.10;3.20;;;;;;;12.82;74.55;98848.53;8287185;28;20180;-64
2022/04/06 18:16:16;;;;;;;5.72;3.00;;;;;;;12.75;74.88;98848.44;8296163;28;20079;-64
2022/04/06 18:20:18;;;;;;;;;;;;;;;12.71;75.59;98841.75;8281237;28;20394;-64
2022/04/06 18:24:18;;;;;;;8.02;3.88;;;;;;;12.67;76.04;98839.63;8264153;28;19922;-64
2022/04/06 18:28:19;;;;;;;7.38;3.00;;;;;;;12.59;76.61;98837.06;8274260;28;20038;-64
2022/04/06 18:32:19;;;;;;;7.53;3.53;;;;;;;12.55;76.79;98831.19;8284333;28;20041;-64
2022/04/06 18:36:20;;;;;;;8.32;3.90;;;;;;;12.56;77.23;98837.44;8317341;28;20041;-64
2022/04/06 18:40:20;;;;;;;9.18;3.70;;;;;;;12.54;77.48;98834.09;8317853;28;20465;-64
2022/04/06 18:44:20;;;;;;;9.32;3.75;;;;;;;12.54;77.81;98834.09;8297637;28;20093;-64
2022/04/06 18:48:22;;;;;;;8.57;4.10;;;;;;;12.57;77.84;98839.13;8272225;28;20054;-64
2022/04/06 18:52:23;;;;;;;7.07;3.65;;;;;;;12.55;78.26;98835.75;8277540;28;20046;-64
2022/04/06 18:56:27;;;;;;;8.75;4.65;;;;;;;12.52;79.21;98841.56;8284006;28;20095;-64
2022/04/06 19:00:29;;;;;;;6.10;3.80;;;;;;;12.54;79.43;98834.09;8303752;28;20481;-64
2022/04/06 19:04:29;;;;;;;11.13;4.18;;;;;;;12.50;81.42;98828.19;8303526;28;20533;-64
2022/04/06 19:08:30;;;;;;;10.57;4.78;;;;;;;12.38;83.95;98834.34;8307040;28;20413;-64
2022/04/06 19:12:33;;;;;;;7.75;4.65;;;;;;;12.14;86.69;98821.97;8309427;28;20489;-64
2022/04/06 19:16:36;;;;;;;13.00;5.13;;;;;;;12.07;86.69;98820.25;8310939;28;20156;-64
2022/04/06 19:20:36;;;;;;;12.13;5.00;;;;;;;12.08;86.23;98820.06;8278377;28;20124;-64